sensor_id;sensor_type;location;lat;lon;timestamp;pressure;altitude;pressure_sealevel;temperature;humidity
62150;BME280;48134;53.586;10.610;2023-08-20T00:01:14;101378.53;;;17.91;100.00
62150;BME280;48134;53.586;10.610;2023-08-20T00:03:46;101384.47;;;17.84;100.00
62150;BME280;48134;53.586;10.610;2023-08-20T00:06:15;101392.66;;;17.75;100.00
62150;BME280;48134;53.586;10.610;2023-08-20T00:08:48;101383.91;;;17.73;100.00
62150;BME280;48134;53.586;10.610;2023-08-20T00:11:22;101389.22;;;17.70;100.00
62150;BME280;48134;53.586;10.610;2023-08-20T00:13:56;101399.44;;;17.69;100.00
62150;BME280;48134;53.586;10.610;2023-08-20T00:16:30;101401.03;;;17.70;100.00
62150;BME280;48134;53.586;10.610;2023-08-20T00:19:03;101396.25;;;17.62;100.00
62150;BME280;48134;53.586;10.610;2023-08-20T00:21:41;101406.19;;;17.49;100.00
62150;BME280;48134;53.586;10.610;2023-08-20T00:24:15;101403.94;;;17.51;100.00
62150;BME280;48134;53.586;10.610;2023-08-20T00:26:48;101403.66;;;17.53;100.00
62150;BME280;48134;53.586;10.610;2023-08-20T00:29:18;101407.22;;;17.53;100.00
62150;BME280;48134;53.586;10.610;2023-08-20T00:31:47;101406.56;;;17.56;100.00
62150;BME280;48134;53.586;10.610;2023-08-20T00:34:15;101411.31;;;17.42;100.00
62150;BME280;48134;53.586;10.610;2023-08-20T00:36:43;101416.19;;;17.45;100.00
62150;BME280;48134;53.586;10.610;2023-08-20T00:39:11;101413.84;;;17.38;100.00
62150;BME280;48134;53.586;10.610;2023-08-20T00:41:39;101415.59;;;17.34;100.00
62150;BME280;48134;53.586;10.610;2023-08-20T00:44:12;101427.13;;;17.36;100.00
62150;BME280;48134;53.586;10.610;2023-08-20T00:46:47;101425.88;;;17.28;100.00
62150;BME280;48134;53.586;10.610;2023-08-20T00:49:20;101428.94;;;17.27;100.00
62150;BME280;48134;53.586;10.610;2023-08-20T00:51:54;101432.72;;;17.17;100.00
62150;BME280;48134;53.586;10.610;2023-08-20T00:54:22;101431.31;;;17.20;100.00
62150;BME280;48134;53.586;10.610;2023-08-20T00:56:50;101436.28;;;17.17;100.00
62150;BME280;48134;53.586;10.610;2023-08-20T00:59:24;101435.06;;;17.10;100.00
62150;BME280;48134;53.586;10.610;2023-08-20T01:01:58;101431.19;;;17.11;100.00
62150;BME280;48134;53.586;10.610;2023-08-20T01:04:32;101429.28;;;17.11;100.00
62150;BME280;48134;53.586;10.610;2023-08-20T01:07:14;101435.06;;;17.10;100.00
62150;BME280;48134;53.586;10.610;2023-08-20T01:09:50;101433.84;;;17.02;100.00
62150;BME280;48134;53.586;10.610;2023-08-20T01:12:29;101438.53;;;17.02;100.00
62150;BME280;48134;53.586;10.610;2023-08-20T01:15:04;101435.88;;;16.96;100.00
62150;BME280;48134;53.586;10.610;2023-08-20T01:17:38;101447.59;;;17.02;100.00
62150;BME280;48134;53.586;10.610;2023-08-20T01:20:12;101444.94;;;16.97;100.00
62150;BME280;48134;53.586;10.610;2023-08-20T01:23:00;101430.78;;;16.90;100.00
62150;BME280;48134;53.586;10.610;2023-08-20T01:25:46;101440.81;;;16.80;100.00
62150;BME280;48134;53.586;10.610;2023-08-20T01:28:23;101419.75;;;16.76;100.00
62150;BME280;48134;53.586;10.610;2023-08-20T01:30:53;101423.41;;;16.71;100.00
62150;BME280;48134;53.586;10.610;2023-08-20T01:33:27;101434.59;;;16.75;100.00
62150;BME280;48134;53.586;10.610;2023-08-20T01:35:58;101438.19;;;16.75;100.00
62150;BME280;48134;53.586;10.610;2023-08-20T01:38:31;101441.72;;;16.76;100.00
62150;BME280;48134;53.586;10.610;2023-08-20T01:40:59;101432.06;;;16.78;100.00
62150;BME280;48134;53.586;10.610;2023-08-20T01:43:34;101427.88;;;16.67;100.00
62150;BME280;48134;53.586;10.610;2023-08-20T01:46:07;101427.97;;;16.62;100.00
62150;BME280;48134;53.586;10.610;2023-08-20T01:48:41;101430.59;;;16.53;100.00
62150;BME280;48134;53.586;10.610;2023-08-20T01:51:14;101427.72;;;16.44;100.00
62150;BME280;48134;53.586;10.610;2023-08-20T01:53:48;101434.13;;;16.40;100.00
62150;BME280;48134;53.586;10.610;2023-08-20T01:56:23;101425.50;;;16.46;100.00
62150;BME280;48134;53.586;10.610;2023-08-20T01:58:52;101425.28;;;16.43;100.00
62150;BME280;48134;53.586;10.610;2023-08-20T02:01:26;101429.53;;;16.35;100.00
62150;BME280;48134;53.586;10.610;2023-08-20T02:03:54;101431.38;;;16.40;100.00
62150;BME280;48134;53.586;10.610;2023-08-20T02:06:27;101424.84;;;16.36;100.00
62150;BME280;48134;53.586;10.610;2023-08-20T02:09:00;101421.47;;;16.25;100.00
62150;BME280;48134;53.586;10.610;2023-08-20T02:11:34;101417.38;;;16.22;100.00
62150;BME280;48134;53.586;10.610;2023-08-20T02:14:04;101412.50;;;16.19;100.00
62150;BME280;48134;53.586;10.610;2023-08-20T02:16:38;101426.47;;;16.23;100.00
62150;BME280;48134;53.586;10.610;2023-08-20T02:19:11;101425.63;;;16.22;100.00
62150;BME280;48134;53.586;10.610;2023-08-20T02:21:45;101430.91;;;16.19;100.00
62150;BME280;48134;53.586;10.610;2023-08-20T02:24:14;101431.50;;;16.15;100.00
62150;BME280;48134;53.586;10.610;2023-08-20T02:26:47;101429.94;;;16.09;100.00
62150;BME280;48134;53.586;10.610;2023-08-20T02:29:17;101428.13;;;16.05;100.00
62150;BME280;48134;53.586;10.610;2023-08-20T02:31:50;101435.94;;;16.11;100.00
62150;BME280;48134;53.586;10.610;2023-08-20T02:34:18;101432.47;;;16.06;100.00
62150;BME280;48134;53.586;10.610;2023-08-20T02:36:47;101430.03;;;16.04;100.00
62150;BME280;48134;53.586;10.610;2023-08-20T02:39:20;101435.38;;;16.14;100.00
62150;BME280;48134;53.586;10.610;2023-08-20T02:41:53;101437.88;;;16.11;100.00
62150;BME280;48134;53.586;10.610;2023-08-20T02:44:28;101435.44;;;16.09;100.00
62150;BME280;48134;53.586;10.610;2023-08-20T02:47:01;101434.84;;;16.12;100.00
62150;BME280;48134;53.586;10.610;2023-08-20T02:49:34;101440.88;;;16.14;100.00
62150;BME280;48134;53.586;10.610;2023-08-20T02:52:03;101437.16;;;16.05;100.00
62150;BME280;48134;53.586;10.610;2023-08-20T02:54:36;101439.00;;;15.91;100.00
62150;BME280;48134;53.586;10.610;2023-08-20T02:57:09;101431.59;;;15.91;100.00
62150;BME280;48134;53.586;10.610;2023-08-20T02:59:39;101428.56;;;15.93;100.00
62150;BME280;48134;53.586;10.610;2023-08-20T03:02:12;101425.69;;;15.84;100.00
62150;BME280;48134;53.586;10.610;2023-08-20T03:04:40;101423.66;;;15.90;100.00
62150;BME280;48134;53.586;10.610;2023-08-20T03:07:13;101423.50;;;15.81;100.00
62150;BME280;48134;53.586;10.610;2023-08-20T03:09:46;101429.56;;;15.78;100.00
62150;BME280;48134;53.586;10.610;2023-08-20T03:12:15;101428.31;;;15.70;100.00
62150;BME280;48134;53.586;10.610;2023-08-20T03:14:49;101435.94;;;15.54;100.00
62150;BME280;48134;53.586;10.610;2023-08-20T03:17:22;101438.06;;;15.38;100.00
62150;BME280;48134;53.586;10.610;2023-08-20T03:19:54;101432.34;;;15.35;100.00
62150;BME280;48134;53.586;10.610;2023-08-20T03:22:28;101433.56;;;15.47;100.00
62150;BME280;48134;53.586;10.610;2023-08-20T03:25:02;101444.75;;;15.51;100.00
62150;BME280;48134;53.586;10.610;2023-08-20T03:27:30;101438.28;;;15.42;100.00
62150;BME280;48134;53.586;10.610;2023-08-20T03:30:06;101439.19;;;15.37;100.00
62150;BME280;48134;53.586;10.610;2023-08-20T03:32:35;101444.72;;;15.32;100.00
62150;BME280;48134;53.586;10.610;2023-08-20T03:35:09;101441.19;;;15.32;100.00
62150;BME280;48134;53.586;10.610;2023-08-20T03:37:37;101453.53;;;15.29;100.00
62150;BME280;48134;53.586;10.610;2023-08-20T03:40:11;101450.31;;;15.22;100.00
62150;BME280;48134;53.586;10.610;2023-08-20T03:42:40;101457.38;;;15.28;100.00
62150;BME280;48134;53.586;10.610;2023-08-20T03:45:10;101462.91;;;15.23;100.00
62150;BME280;48134;53.586;10.610;2023-08-20T03:47:39;101457.50;;;15.18;100.00
62150;BME280;48134;53.586;10.610;2023-08-20T03:50:11;101475.00;;;15.22;100.00
62150;BME280;48134;53.586;10.610;2023-08-20T03:52:39;101469.75;;;15.25;100.00
62150;BME280;48134;53.586;10.610;2023-08-20T03:55:12;101465.97;;;15.21;100.00
62150;BME280;48134;53.586;10.610;2023-08-20T03:57:45;101464.50;;;15.29;100.00
62150;BME280;48134;53.586;10.610;2023-08-20T04:00:20;101470.22;;;15.33;100.00
62150;BME280;48134;53.586;10.610;2023-08-20T04:02:48;101466.91;;;15.36;100.00
62150;BME280;48134;53.586;10.610;2023-08-20T04:05:21;101474.25;;;15.40;100.00
62150;BME280;48134;53.586;10.610;2023-08-20T04:07:55;101473.88;;;15.47;100.00
62150;BME280;48134;53.586;10.610;2023-08-20T04:10:29;101472.50;;;15.50;100.00
62150;BME280;48134;53.586;10.610;2023-08-20T04:13:02;101483.69;;;15.53;100.00
62150;BME280;48134;53.586;10.610;2023-08-20T04:15:37;101483.22;;;15.46;100.00
62150;BME280;48134;53.586;10.610;2023-08-20T04:18:10;101484.09;;;15.41;100.00
62150;BME280;48134;53.586;10.610;2023-08-20T04:20:44;101480.81;;;15.39;100.00
62150;BME280;48134;53.586;10.610;2023-08-20T04:23:17;101484.09;;;15.41;100.00
62150;BME280;48134;53.586;10.610;2023-08-20T04:25:50;101486.00;;;15.41;100.00
62150;BME280;48134;53.586;10.610;2023-08-20T04:28:24;101490.47;;;15.37;100.00
62150;BME280;48134;53.586;10.610;2023-08-20T04:30:58;101485.22;;;15.40;100.00
62150;BME280;48134;53.586;10.610;2023-08-20T04:33:37;101497.53;;;15.43;100.00
62150;BME280;48134;53.586;10.610;2023-08-20T04:36:10;101493.59;;;15.49;100.00
62150;BME280;48134;53.586;10.610;2023-08-20T04:38:38;101497.69;;;15.52;100.00
62150;BME280;48134;53.586;10.610;2023-08-20T04:41:12;101499.09;;;15.49;100.00
62150;BME280;48134;53.586;10.610;2023-08-20T04:43:45;101497.09;;;15.55;100.00
62150;BME280;48134;53.586;10.610;2023-08-20T04:46:15;101504.06;;;15.47;100.00
62150;BME280;48134;53.586;10.610;2023-08-20T04:48:44;101497.09;;;15.55;100.00
62150;BME280;48134;53.586;10.610;2023-08-20T04:51:18;101500.28;;;15.43;100.00
62150;BME280;48134;53.586;10.610;2023-08-20T04:53:46;101510.41;;;15.42;100.00
62150;BME280;48134;53.586;10.610;2023-08-20T04:56:14;101509.31;;;15.43;100.00
62150;BME280;48134;53.586;10.610;2023-08-20T04:58:42;101511.88;;;15.35;100.00
62150;BME280;48134;53.586;10.610;2023-08-20T05:01:36;101508.25;;;15.39;100.00
62150;BME280;48134;53.586;10.610;2023-08-20T05:04:11;101512.09;;;15.38;100.00
62150;BME280;48134;53.586;10.610;2023-08-20T05:06:45;101515.63;;;15.44;100.00
62150;BME280;48134;53.586;10.610;2023-08-20T05:09:13;101511.06;;;15.58;100.00
62150;BME280;48134;53.586;10.610;2023-08-20T05:11:47;101510.25;;;15.58;100.00
62150;BME280;48134;53.586;10.610;2023-08-20T05:14:20;101517.69;;;15.76;100.00
62150;BME280;48134;53.586;10.610;2023-08-20T05:16:55;101505.19;;;15.89;100.00
62150;BME280;48134;53.586;10.610;2023-08-20T05:19:28;101512.75;;;15.97;100.00
62150;BME280;48134;53.586;10.610;2023-08-20T05:22:01;101510.75;;;16.22;100.00
62150;BME280;48134;53.586;10.610;2023-08-20T05:24:35;101517.41;;;16.54;100.00
62150;BME280;48134;53.586;10.610;2023-08-20T05:27:05;101513.72;;;16.45;100.00
62150;BME280;48134;53.586;10.610;2023-08-20T05:29:38;101507.00;;;16.51;100.00
62150;BME280;48134;53.586;10.610;2023-08-20T05:32:13;101505.53;;;16.59;100.00
62150;BME280;48134;53.586;10.610;2023-08-20T05:34:48;101507.00;;;16.51;100.00
62150;BME280;48134;53.586;10.610;2023-08-20T05:37:21;101495.00;;;16.47;100.00
62150;BME280;48134;53.586;10.610;2023-08-20T05:39:54;101495.88;;;16.61;100.00
62150;BME280;48134;53.586;10.610;2023-08-20T05:42:28;101495.56;;;16.63;100.00
62150;BME280;48134;53.586;10.610;2023-08-20T05:45:05;101500.75;;;16.64;100.00
62150;BME280;48134;53.586;10.610;2023-08-20T05:47:40;101501.97;;;16.72;100.00
62150;BME280;48134;53.586;10.610;2023-08-20T05:50:14;101505.22;;;16.60;100.00
62150;BME280;48134;53.586;10.610;2023-08-20T05:52:48;101496.91;;;16.65;100.00
62150;BME280;48134;53.586;10.610;2023-08-20T05:55:16;101493.22;;;16.70;100.00
62150;BME280;48134;53.586;10.610;2023-08-20T05:57:49;101489.97;;;16.68;100.00
62150;BME280;48134;53.586;10.610;2023-08-20T06:00:18;101490.97;;;16.72;100.00
62150;BME280;48134;53.586;10.610;2023-08-20T06:02:52;101468.75;;;16.88;100.00
62150;BME280;48134;53.586;10.610;2023-08-20T06:05:26;101457.88;;;16.96;100.00
62150;BME280;48134;53.586;10.610;2023-08-20T06:07:59;101471.22;;;17.03;100.00
62150;BME280;48134;53.586;10.610;2023-08-20T06:10:28;101467.47;;;17.13;100.00
62150;BME280;48134;53.586;10.610;2023-08-20T06:13:01;101457.16;;;17.05;100.00
62150;BME280;48134;53.586;10.610;2023-08-20T06:15:30;101450.44;;;16.97;100.00
62150;BME280;48134;53.586;10.610;2023-08-20T06:17:59;101469.03;;;16.86;100.00
62150;BME280;48134;53.586;10.610;2023-08-20T06:20:27;101485.25;;;16.88;100.00
62150;BME280;48134;53.586;10.610;2023-08-20T06:22:56;101486.78;;;16.94;100.00
62150;BME280;48134;53.586;10.610;2023-08-20T06:25:30;101501.09;;;16.77;100.00
62150;BME280;48134;53.586;10.610;2023-08-20T06:27:58;101507.31;;;16.82;100.00
62150;BME280;48134;53.586;10.610;2023-08-20T06:30:31;101494.59;;;16.87;100.00
62150;BME280;48134;53.586;10.610;2023-08-20T06:33:06;101501.34;;;16.94;100.00
62150;BME280;48134;53.586;10.610;2023-08-20T06:35:40;101508.31;;;17.06;100.00
62150;BME280;48134;53.586;10.610;2023-08-20T06:38:14;101519.91;;;17.16;100.00
62150;BME280;48134;53.586;10.610;2023-08-20T06:40:42;101507.00;;;17.17;100.00
62150;BME280;48134;53.586;10.610;2023-08-20T06:43:10;101503.72;;;17.29;100.00
62150;BME280;48134;53.586;10.610;2023-08-20T06:45:43;101511.69;;;17.30;100.00
62150;BME280;48134;53.586;10.610;2023-08-20T06:48:18;101518.81;;;17.45;100.00
62150;BME280;48134;53.586;10.610;2023-08-20T06:50:47;101525.75;;;17.57;100.00
62150;BME280;48134;53.586;10.610;2023-08-20T06:53:20;101529.94;;;17.54;100.00
62150;BME280;48134;53.586;10.610;2023-08-20T06:55:48;101539.91;;;17.50;100.00
62150;BME280;48134;53.586;10.610;2023-08-20T06:58:21;101534.00;;;17.71;100.00
62150;BME280;48134;53.586;10.610;2023-08-20T07:00:54;101536.94;;;17.74;100.00
62150;BME280;48134;53.586;10.610;2023-08-20T07:03:24;101527.47;;;17.80;100.00
62150;BME280;48134;53.586;10.610;2023-08-20T07:05:52;101534.91;;;17.66;100.00
62150;BME280;48134;53.586;10.610;2023-08-20T07:08:21;101532.97;;;17.80;100.00
62150;BME280;48134;53.586;10.610;2023-08-20T07:10:49;101530.38;;;17.98;100.00
62150;BME280;48134;53.586;10.610;2023-08-20T07:13:23;101534.78;;;17.99;100.00
62150;BME280;48134;53.586;10.610;2023-08-20T07:15:56;101526.47;;;18.13;100.00
62150;BME280;48134;53.586;10.610;2023-08-20T07:18:25;101535.03;;;18.25;100.00
62150;BME280;48134;53.586;10.610;2023-08-20T07:20:58;101533.47;;;18.33;100.00
62150;BME280;48134;53.586;10.610;2023-08-20T07:23:27;101543.22;;;18.39;100.00
62150;BME280;48134;53.586;10.610;2023-08-20T07:26:04;101536.66;;;18.49;100.00
62150;BME280;48134;53.586;10.610;2023-08-20T07:28:38;101538.97;;;18.56;100.00
62150;BME280;48134;53.586;10.610;2023-08-20T07:31:31;101538.44;;;18.67;100.00
62150;BME280;48134;53.586;10.610;2023-08-20T07:34:02;101543.75;;;18.64;100.00
62150;BME280;48134;53.586;10.610;2023-08-20T07:36:36;101535.03;;;18.93;100.00
62150;BME280;48134;53.586;10.610;2023-08-20T07:39:09;101536.88;;;18.98;100.00
62150;BME280;48134;53.586;10.610;2023-08-20T07:41:37;101544.78;;;18.91;100.00
62150;BME280;48134;53.586;10.610;2023-08-20T07:44:11;101551.97;;;19.00;100.00
62150;BME280;48134;53.586;10.610;2023-08-20T07:46:39;101542.53;;;19.01;100.00
62150;BME280;48134;53.586;10.610;2023-08-20T07:49:08;101548.28;;;19.14;100.00
62150;BME280;48134;53.586;10.610;2023-08-20T07:51:37;101542.50;;;19.24;100.00
62150;BME280;48134;53.586;10.610;2023-08-20T07:54:10;101549.66;;;19.25;100.00
62150;BME280;48134;53.586;10.610;2023-08-20T07:56:43;101547.06;;;19.29;100.00
62150;BME280;48134;53.586;10.610;2023-08-20T07:59:16;101555.03;;;19.30;100.00
62150;BME280;48134;53.586;10.610;2023-08-20T08:01:44;101557.63;;;19.27;100.00
62150;BME280;48134;53.586;10.610;2023-08-20T08:04:19;101566.50;;;19.24;100.00
62150;BME280;48134;53.586;10.610;2023-08-20T08:06:47;101562.69;;;19.33;100.00
62150;BME280;48134;53.586;10.610;2023-08-20T08:09:19;101563.56;;;19.51;100.00
62150;BME280;48134;53.586;10.610;2023-08-20T08:11:49;101561.94;;;19.50;100.00
62150;BME280;48134;53.586;10.610;2023-08-20T08:14:17;101567.97;;;19.61;100.00
62150;BME280;48134;53.586;10.610;2023-08-20T08:16:46;101563.13;;;19.67;100.00
62150;BME280;48134;53.586;10.610;2023-08-20T08:19:14;101564.34;;;19.83;100.00
62150;BME280;48134;53.586;10.610;2023-08-20T08:21:44;101568.31;;;19.68;100.00
62150;BME280;48134;53.586;10.610;2023-08-20T08:24:13;101564.25;;;19.75;100.00
62150;BME280;48134;53.586;10.610;2023-08-20T08:26:46;101569.28;;;19.64;100.00
62150;BME280;48134;53.586;10.610;2023-08-20T08:29:19;101575.19;;;19.80;100.00
62150;BME280;48134;53.586;10.610;2023-08-20T08:31:47;101578.63;;;19.85;100.00
62150;BME280;48134;53.586;10.610;2023-08-20T08:34:16;101580.25;;;19.86;100.00
62150;BME280;48134;53.586;10.610;2023-08-20T08:36:51;101573.13;;;19.94;100.00
62150;BME280;48134;53.586;10.610;2023-08-20T08:39:19;101573.94;;;20.03;100.00
62150;BME280;48134;53.586;10.610;2023-08-20T08:41:57;101573.63;;;19.96;100.00
62150;BME280;48134;53.586;10.610;2023-08-20T08:44:34;101581.72;;;19.93;100.00
62150;BME280;48134;53.586;10.610;2023-08-20T08:47:07;101578.34;;;19.96;100.00
62150;BME280;48134;53.586;10.610;2023-08-20T08:49:35;101579.94;;;19.97;100.00
62150;BME280;48134;53.586;10.610;2023-08-20T08:52:05;101588.22;;;19.88;100.00
62150;BME280;48134;53.586;10.610;2023-08-20T08:54:34;101577.69;;;20.08;100.00
62150;BME280;48134;53.586;10.610;2023-08-20T08:57:02;101584.56;;;20.28;100.00
62150;BME280;48134;53.586;10.610;2023-08-20T08:59:30;101580.66;;;20.46;100.00
62150;BME280;48134;53.586;10.610;2023-08-20T09:02:01;101580.00;;;20.32;100.00
62150;BME280;48134;53.586;10.610;2023-08-20T09:04:34;101579.34;;;20.44;100.00
62150;BME280;48134;53.586;10.610;2023-08-20T09:07:10;101581.13;;;20.57;100.00
62150;BME280;48134;53.586;10.610;2023-08-20T09:09:42;101579.19;;;20.58;100.00
62150;BME280;48134;53.586;10.610;2023-08-20T09:12:14;101585.72;;;20.70;100.00
62150;BME280;48134;53.586;10.610;2023-08-20T09:14:45;101594.50;;;20.81;100.00
62150;BME280;48134;53.586;10.610;2023-08-20T09:17:15;101587.81;;;20.73;100.00
62150;BME280;48134;53.586;10.610;2023-08-20T09:19:46;101585.88;;;20.83;100.00
62150;BME280;48134;53.586;10.610;2023-08-20T09:22:16;101588.13;;;20.54;100.00
62150;BME280;48134;53.586;10.610;2023-08-20T09:24:51;101590.13;;;20.71;100.00
62150;BME280;48134;53.586;10.610;2023-08-20T09:27:21;101595.78;;;20.84;100.00
62150;BME280;48134;53.586;10.610;2023-08-20T09:29:50;101586.50;;;20.62;100.00
62150;BME280;48134;53.586;10.610;2023-08-20T09:32:20;101595.31;;;20.82;100.00
62150;BME280;48134;53.586;10.610;2023-08-20T09:34:49;101595.13;;;20.87;100.00
62150;BME280;48134;53.586;10.610;2023-08-20T09:37:20;101592.84;;;20.98;100.00
62150;BME280;48134;53.586;10.610;2023-08-20T09:39:49;101592.50;;;21.08;100.00
62150;BME280;48134;53.586;10.610;2023-08-20T09:42:17;101590.47;;;21.26;100.00
62150;BME280;48134;53.586;10.610;2023-08-20T09:44:46;101596.34;;;21.24;100.00
62150;BME280;48134;53.586;10.610;2023-08-20T09:47:16;101599.00;;;21.12;100.00
62150;BME280;48134;53.586;10.610;2023-08-20T09:49:46;101598.06;;;20.99;100.00
62150;BME280;48134;53.586;10.610;2023-08-20T09:52:17;101592.81;;;21.06;100.00
62150;BME280;48134;53.586;10.610;2023-08-20T09:54:58;101603.03;;;21.23;100.00
62150;BME280;48134;53.586;10.610;2023-08-20T09:57:33;101590.56;;;21.47;100.00
62150;BME280;48134;53.586;10.610;2023-08-20T10:00:04;101601.00;;;21.41;100.00
62150;BME280;48134;53.586;10.610;2023-08-20T10:02:42;101600.03;;;21.46;100.00
62150;BME280;48134;53.586;10.610;2023-08-20T10:05:12;101596.94;;;21.39;100.00
62150;BME280;48134;53.586;10.610;2023-08-20T10:07:42;101594.16;;;21.48;100.00
62150;BME280;48134;53.586;10.610;2023-08-20T10:10:17;101601.03;;;21.33;100.00
62150;BME280;48134;53.586;10.610;2023-08-20T10:12:46;101600.50;;;21.48;100.00
62150;BME280;48134;53.586;10.610;2023-08-20T10:15:20;101590.91;;;21.54;100.00
62150;BME280;48134;53.586;10.610;2023-08-20T10:17:57;101592.00;;;21.62;100.00
62150;BME280;48134;53.586;10.610;2023-08-20T10:20:28;101589.41;;;21.57;100.00
62150;BME280;48134;53.586;10.610;2023-08-20T10:23:00;101586.50;;;21.53;100.00
62150;BME280;48134;53.586;10.610;2023-08-20T10:25:40;101579.63;;;21.60;100.00
62150;BME280;48134;53.586;10.610;2023-08-20T10:28:19;101565.88;;;21.72;100.00
62150;BME280;48134;53.586;10.610;2023-08-20T10:31:09;101562.97;;;21.68;100.00
62150;BME280;48134;53.586;10.610;2023-08-20T10:33:47;101567.66;;;21.77;100.00
62150;BME280;48134;53.586;10.610;2023-08-20T10:36:22;101565.38;;;22.00;100.00
62150;BME280;48134;53.586;10.610;2023-08-20T10:39:03;101563.09;;;22.02;100.00
62150;BME280;48134;53.586;10.610;2023-08-20T10:41:39;101558.06;;;21.95;100.00
62150;BME280;48134;53.586;10.610;2023-08-20T10:44:07;101567.19;;;21.96;100.00
62150;BME280;48134;53.586;10.610;2023-08-20T10:46:49;101558.34;;;22.02;100.00
62150;BME280;48134;53.586;10.610;2023-08-20T10:49:18;101562.41;;;22.05;100.00
62150;BME280;48134;53.586;10.610;2023-08-20T10:51:47;101561.47;;;22.22;100.00
62150;BME280;48134;53.586;10.610;2023-08-20T10:54:20;101549.75;;;22.16;100.00
62150;BME280;48134;53.586;10.610;2023-08-20T10:56:55;101555.56;;;22.02;100.00
62150;BME280;48134;53.586;10.610;2023-08-20T10:59:30;101561.59;;;22.25;100.00
62150;BME280;48134;53.586;10.610;2023-08-20T11:01:59;101560.97;;;22.50;100.00
62150;BME280;48134;53.586;10.610;2023-08-20T11:04:32;101553.28;;;22.47;100.00
62150;BME280;48134;53.586;10.610;2023-08-20T11:07:01;101558.72;;;22.76;100.00
62150;BME280;48134;53.586;10.610;2023-08-20T11:09:35;101552.41;;;22.88;100.00
62150;BME280;48134;53.586;10.610;2023-08-20T11:12:14;101557.06;;;22.63;100.00
62150;BME280;48134;53.586;10.610;2023-08-20T11:14:42;101561.91;;;22.54;100.00
62150;BME280;48134;53.586;10.610;2023-08-20T11:17:10;101556.28;;;22.41;100.00
62150;BME280;48134;53.586;10.610;2023-08-20T11:19:43;101559.56;;;22.56;100.00
62150;BME280;48134;53.586;10.610;2023-08-20T11:22:12;101559.03;;;22.63;100.00
62150;BME280;48134;53.586;10.610;2023-08-20T11:24:47;101563.72;;;22.83;100.00
62150;BME280;48134;53.586;10.610;2023-08-20T11:27:17;101561.81;;;22.63;100.00
62150;BME280;48134;53.586;10.610;2023-08-20T11:29:45;101570.75;;;22.47;100.00
62150;BME280;48134;53.586;10.610;2023-08-20T11:32:14;101574.19;;;22.44;100.00
62150;BME280;48134;53.586;10.610;2023-08-20T11:34:47;101570.94;;;22.21;100.00
62150;BME280;48134;53.586;10.610;2023-08-20T11:37:17;101577.63;;;22.20;100.00
62150;BME280;48134;53.586;10.610;2023-08-20T11:39:47;101575.53;;;22.59;100.00
62150;BME280;48134;53.586;10.610;2023-08-20T11:42:17;101575.63;;;22.84;100.00
62150;BME280;48134;53.586;10.610;2023-08-20T11:44:50;101574.88;;;22.96;100.00
62150;BME280;48134;53.586;10.610;2023-08-20T11:47:23;101582.31;;;22.83;100.00
62150;BME280;48134;53.586;10.610;2023-08-20T11:50:04;101572.75;;;23.14;100.00
62150;BME280;48134;53.586;10.610;2023-08-20T11:52:33;101573.66;;;23.18;100.00
62150;BME280;48134;53.586;10.610;2023-08-20T11:55:07;101574.13;;;23.32;100.00
62150;BME280;48134;53.586;10.610;2023-08-20T11:57:42;101574.22;;;22.78;100.00
62150;BME280;48134;53.586;10.610;2023-08-20T12:00:24;101581.81;;;22.68;100.00
62150;BME280;48134;53.586;10.610;2023-08-20T12:02:58;101582.16;;;22.67;100.00
62150;BME280;48134;53.586;10.610;2023-08-20T12:05:27;101580.03;;;22.85;100.00
62150;BME280;48134;53.586;10.610;2023-08-20T12:08:02;101576.09;;;23.19;100.00
62150;BME280;48134;53.586;10.610;2023-08-20T12:10:42;101572.88;;;23.42;100.00
62150;BME280;48134;53.586;10.610;2023-08-20T12:13:16;101572.44;;;23.40;100.00
62150;BME280;48134;53.586;10.610;2023-08-20T12:15:44;101567.78;;;23.32;100.00
62150;BME280;48134;53.586;10.610;2023-08-20T12:18:13;101574.56;;;23.09;100.00
62150;BME280;48134;53.586;10.610;2023-08-20T12:20:41;101561.50;;;22.76;100.00
62150;BME280;48134;53.586;10.610;2023-08-20T12:23:14;101569.63;;;22.82;100.00
62150;BME280;48134;53.586;10.610;2023-08-20T12:25:42;101571.72;;;22.51;100.00
62150;BME280;48134;53.586;10.610;2023-08-20T12:28:10;101560.81;;;22.46;100.00
62150;BME280;48134;53.586;10.610;2023-08-20T12:30:45;101562.50;;;22.38;100.00
62150;BME280;48134;53.586;10.610;2023-08-20T12:33:13;101558.94;;;22.71;100.00
62150;BME280;48134;53.586;10.610;2023-08-20T12:35:42;101567.50;;;22.79;100.00
62150;BME280;48134;53.586;10.610;2023-08-20T12:38:15;101567.81;;;22.65;100.00
62150;BME280;48134;53.586;10.610;2023-08-20T12:40:48;101563.25;;;22.81;100.00
62150;BME280;48134;53.586;10.610;2023-08-20T12:43:16;101568.03;;;22.59;100.00
62150;BME280;48134;53.586;10.610;2023-08-20T12:45:51;101565.19;;;22.68;100.00
62150;BME280;48134;53.586;10.610;2023-08-20T12:48:24;101562.38;;;23.02;100.00
62150;BME280;48134;53.586;10.610;2023-08-20T12:50:52;101562.84;;;23.04;100.00
62150;BME280;48134;53.586;10.610;2023-08-20T12:53:21;101565.22;;;23.14;100.00
62150;BME280;48134;53.586;10.610;2023-08-20T12:55:49;101562.94;;;23.41;100.00